BGJN

Ilulissat Airport

Ilulissat, Greenland
TAF AMD BGJN 182156Z 1821/1903 36006KT 9999 FEW008 SCT025 PROB40 1900/1903 1500 BCFG BKN004
Issued Valid From Valid To
Jul-18 @ 21:56 UTC
(34 minutes ago)
Jul-18 @ 21:00 UTC
(2 hours ago)
Jul-19 @ 03:00 UTC
(in 4 hours)
Jul-18 @ 21:00 to Jul-19 @ 03:00
TAF AMD BGJN 182156Z 1821/1903 36006KT 9999 FEW008 SCT025
Wind Visibility Clouds
360° at 6 knots 10,000+ meters
  • Few at 800' AGL
  • Scattered at 2,500' AGL
Probable  (Probability 40%) Jul-19 @ 00:00 to Jul-19 @ 03:00
PROB40 1900/1903 1500 BCFG BKN004
Visibility Clouds Conditions
1,497 meters
  • Broken at 400' AGL
  • Patches of
  • Fog
TAF AMD BGJN 182156Z 1821/1903 36006KT 9999 FEW008 SCT025 PROB40 1900/1903 1500 BCFG BKN004
Issued Jul-18 @ 21:56 UTC
(34 minutes ago)
Valid From Jul-18 @ 21:00 UTC
(2 hours ago)
Valid To Jul-19 @ 03:00 UTC
(in 4 hours)
Jul-18 @ 21:00 - Jul-19 @ 03:00
Wind Visibility
360° at 6 knots 10,000+ meters
Clouds
  • Few at 800' AGL
  • Scattered at 2,500' AGL
Probability 40% Probable Jul-19 @ 00:00 - Jul-19 @ 03:00
Clouds
  • Broken at 400' AGL
Conditions
  • Patches of
  • Fog